KGYY/GYY METAR and TAF weather

Enter ICAO airport designator
Station Type Date Time Source
KGYY METAR 2022/12/04 11:45 UTC NOAA

KGYY 041145Z 20003KT 10SM CLR M08/M12 A3030


Station Type Date Time Source
KGYY Decoded METAR 2022/12/04 11:45 UTC NOAA

Gary Regional, IN, United States (KGYY) 41-37N 087-25W
Dec 04, 2022 - 06:45 AM EST / 2022.12.04 1145 UTC
Wind: from the SSW (200 degrees) at 3 MPH (3 KT):0
Visibility: 10 mile(s):0
Sky conditions: clear
Temperature: 17 F (-8 C)
Dew Point: 10 F (-12 C)
Relative Humidity: 72%
Pressure (altimeter): 30.3 in. Hg (1026 hPa)
ob: KGYY 041145Z 20003KT 10SM CLR M08/M12 A3030
cycle: 12

Station Type Date Time Source
KGYY TAF 2022/12/04 12:22 UTC NOAA

TAF KGYY 041120Z 0412/0512 22008KT P6SM SKC
FM041500 23012G19KT P6SM FEW250
FM042300 21008KT P6SM SCT250

Example: see airport list